Time;durP1;ratioP1;P1;durP2;ratioP2;P2;SDS_P1;SDS_P2;PMS_P1;PMS_P2;Temp;Humidity;BMP_temperature;BMP_pressure;BME280_temperature;BME280_humidity;BME280_pressure;Samples;Min_cycle;Max_cycle;Signal;HPM_P1;HPM_P2
2022/11/21 00:00:28;;;;;;;21.17;9.88;;;;;;;-148.88;100.00;76516.66;5014249;28;20540;-82
2022/11/21 00:02:53;;;;;;;24.80;10.88;;;;;;;-148.88;100.00;76520.72;5014462;28;20079;-83
2022/11/21 00:05:19;;;;;;;23.98;11.05;;;;;;;-148.88;100.00;76530.88;5014280;28;20109;-84
2022/11/21 00:07:44;;;;;;;20.55;11.20;;;;;;;-148.88;100.00;76520.72;5032146;28;20125;-84
2022/11/21 00:10:13;;;;;;;29.15;12.27;;;;;;;-148.88;100.00;76528.84;5032409;28;20049;-84
2022/11/21 00:12:38;;;;;;;25.70;11.23;;;;;;;-148.88;100.00;76526.81;5030313;28;20091;-84
2022/11/21 00:15:05;;;;;;;24.30;11.63;;;;;;;-148.88;100.00;76524.78;5028930;28;20030;-84
2022/11/21 00:17:30;;;;;;;28.25;11.90;;;;;;;-148.88;100.00;76522.75;5028164;28;20029;-83
2022/11/21 00:19:55;;;;;;;26.45;11.30;;;;;;;-148.88;100.00;76532.91;5028905;28;20029;-84
2022/11/21 00:22:21;;;;;;;25.40;11.48;;;;;;;-148.88;100.00;76524.78;5027287;28;20097;-84
2022/11/21 00:24:46;;;;;;;27.60;11.93;;;;;;;-148.88;100.00;76514.63;5025016;28;20443;-84
2022/11/21 00:27:11;;;;;;;26.45;11.50;;;;;;;-148.88;100.00;76512.59;5013402;28;20038;-83
2022/11/21 00:29:37;;;;;;;27.35;11.43;;;;;;;-148.88;100.00;76516.66;5012455;28;20034;-83
2022/11/21 00:32:02;;;;;;;21.38;10.10;;;;;;;-148.88;100.00;76512.59;5016552;28;20041;-83
2022/11/21 00:34:27;;;;;;;20.45;10.00;;;;;;;-148.88;100.00;76510.56;5020793;28;20048;-84
2022/11/21 00:36:58;;;;;;;20.35;8.95;;;;;;;-148.88;100.00;76508.53;5017372;28;20169;-84
2022/11/21 00:39:24;;;;;;;18.63;9.40;;;;;;;-148.88;100.00;76512.59;5018438;28;20044;-84
2022/11/21 00:41:49;;;;;;;20.48;9.55;;;;;;;-148.88;100.00;76510.56;5021792;28;20025;-83
2022/11/21 00:44:14;;;;;;;22.17;10.82;;;;;;;-148.88;100.00;76508.53;5021574;28;20072;-84
2022/11/21 00:46:39;;;;;;;22.95;9.50;;;;;;;-148.88;100.00;76516.66;5019757;28;20125;-84
2022/11/21 00:49:05;;;;;;;20.30;9.30;;;;;;;-148.88;100.00;76524.78;5020824;28;20025;-84
2022/11/21 00:51:30;;;;;;;18.25;9.00;;;;;;;-148.88;100.00;76528.84;5024029;28;20036;-84
2022/11/21 00:53:55;;;;;;;17.95;8.75;;;;;;;-148.88;100.00;76520.72;5021543;28;20033;-83
2022/11/21 00:56:21;;;;;;;19.98;9.55;;;;;;;-148.88;100.00;76528.84;5015173;28;20033;-83
2022/11/21 00:58:46;;;;;;;18.90;9.70;;;;;;;-148.88;100.00;76522.75;5014259;28;20022;-84
2022/11/21 01:01:13;;;;;;;19.80;10.65;;;;;;;-148.88;100.00;76532.91;5016079;28;20041;-83
2022/11/21 01:03:39;;;;;;;17.65;8.90;;;;;;;-148.88;100.00;76536.97;5017656;28;20028;-83
2022/11/21 01:06:07;;;;;;;16.95;8.32;;;;;;;-148.88;100.00;76524.78;5018303;28;20030;-83
2022/11/21 01:08:35;;;;;;;19.27;9.52;;;;;;;-148.88;100.00;76518.69;5017561;28;20021;-83
2022/11/21 01:11:13;;;;;;;17.25;8.68;;;;;;;-148.88;100.00;76516.66;5017214;28;20056;-83
2022/11/21 01:13:40;;;;;;;15.07;7.88;;;;;;;-148.88;100.00;76508.53;5017550;28;20026;-83
2022/11/21 01:16:11;;;;;;;20.10;9.10;;;;;;;-148.88;100.00;76504.47;5017942;28;20022;-83
2022/11/21 01:18:37;;;;;;;16.08;7.90;;;;;;;-148.88;100.00;76502.44;5018640;28;20060;-83
2022/11/21 01:21:06;;;;;;;16.83;8.38;;;;;;;-148.88;100.00;76506.50;5017196;28;20021;-83
2022/11/21 01:23:33;;;;;;;17.30;9.10;;;;;;;-148.88;100.00;76508.53;5017208;28;20121;-83
2022/11/21 01:26:03;;;;;;;14.63;7.60;;;;;;;-148.88;100.00;76506.50;5017914;28;20099;-83
2022/11/21 01:28:28;;;;;;;18.13;8.75;;;;;;;-148.88;100.00;76504.47;5017165;28;20044;-84
2022/11/21 01:31:11;;;;;;;18.40;9.18;;;;;;;-148.88;100.00;76541.03;5017272;28;20109;-83
2022/11/21 01:33:37;;;;;;;16.02;8.40;;;;;;;-148.88;100.00;76530.88;5016273;28;20026;-84
2022/11/21 01:36:18;;;;;;;17.73;7.85;;;;;;;-148.88;100.00;76557.28;5016162;28;20401;-83
2022/11/21 01:38:46;;;;;;;20.08;9.00;;;;;;;-148.88;100.00;76557.28;5016442;28;20034;-83
2022/11/21 01:41:14;;;;;;;19.30;8.43;;;;;;;-148.88;100.00;76559.31;5016543;28;20554;-83
2022/11/21 01:43:39;;;;;;;19.73;8.32;;;;;;;-148.88;100.00;76565.41;5016891;28;20525;-84
2022/11/21 01:46:12;;;;;;;16.35;8.50;;;;;;;-148.88;100.00;76571.50;5015240;28;20030;-83
2022/11/21 01:48:53;;;;;;;18.05;8.27;;;;;;;-148.88;100.00;76581.66;5015784;28;20389;-84
2022/11/21 01:51:30;;;;;;;18.33;9.63;;;;;;;-148.88;100.00;76581.66;5017917;28;20040;-84
2022/11/21 01:54:02;;;;;;;18.48;8.82;;;;;;;-148.88;100.00;76571.50;5023877;28;20543;-84
2022/11/21 01:56:32;;;;;;;17.88;8.07;;;;;;;-148.88;100.00;76557.28;5023400;28;20036;-84
2022/11/21 01:59:01;;;;;;;19.17;8.80;;;;;;;-148.88;100.00;76561.34;5024861;28;20038;-84
2022/11/21 02:01:27;;;;;;;18.30;9.60;;;;;;;-148.88;100.00;76567.44;5026512;28;20093;-84
2022/11/21 02:03:55;;;;;;;20.70;8.55;;;;;;;-148.88;100.00;76571.50;5023980;28;20029;-83
2022/11/21 02:06:21;;;;;;;19.40;9.27;;;;;;;-148.88;100.00;76559.31;5023814;28;20029;-84
2022/11/21 02:08:46;;;;;;;19.58;10.07;;;;;;;-148.88;100.00;76545.09;5026130;28;20026;-84
2022/11/21 02:11:36;;;;;;;20.35;8.77;;;;;;;-148.88;100.00;76549.16;5034524;28;20026;-84
2022/11/21 02:14:02;;;;;;;15.48;7.72;;;;;;;-148.88;100.00;76545.09;5032979;28;20627;-84
2022/11/21 02:16:28;;;;;;;18.38;9.40;;;;;;;-148.88;100.00;76549.16;5031739;28;20030;-84
2022/11/21 02:18:53;;;;;;;20.25;8.52;;;;;;;-148.88;100.00;76549.16;5030692;28;20022;-84
2022/11/21 02:21:52;;;;;;;17.60;7.78;;;;;;;-148.88;100.00;76555.25;5029208;28;20491;-84
2022/11/21 02:24:38;;;;;;;15.27;7.30;;;;;;;-148.88;100.00;76553.22;5021010;28;20065;-84
2022/11/21 02:27:04;;;;;;;17.27;7.65;;;;;;;-148.88;100.00;76549.16;5028926;28;20022;-84
2022/11/21 02:29:30;;;;;;;19.42;8.65;;;;;;;-148.88;100.00;76547.13;5029852;28;20078;-83
2022/11/21 02:31:59;;;;;;;16.35;8.07;;;;;;;-148.88;100.00;76547.13;5028558;28;20033;-84
2022/11/21 02:34:24;;;;;;;18.65;7.72;;;;;;;-148.88;100.00;76557.28;5025288;28;20033;-84
2022/11/21 02:36:49;;;;;;;18.88;8.45;;;;;;;-148.88;100.00;76563.38;5027631;28;20033;-84
2022/11/21 02:39:32;;;;;;;17.60;8.40;;;;;;;-148.88;100.00;76573.53;5024858;28;20025;-83
2022/11/21 02:42:13;;;;;;;17.85;7.70;;;;;;;-148.88;100.00;76587.75;5026979;28;20085;-84
2022/11/21 02:45:01;;;;;;;15.60;6.72;;;;;;;-148.88;100.00;76583.69;5014926;28;20022;-83
2022/11/21 02:47:27;;;;;;;16.35;7.68;;;;;;;-148.88;100.00;76589.78;5014150;28;20068;-83
2022/11/21 02:49:59;;;;;;;18.15;8.32;;;;;;;-148.88;100.00;76583.69;5015157;28;20041;-83
2022/11/21 02:52:30;;;;;;;17.10;8.48;;;;;;;-148.88;100.00;76579.63;5013892;28;20025;-83
2022/11/21 02:54:55;;;;;;;19.17;9.57;;;;;;;-148.88;100.00;76569.47;5014942;28;20095;-83
2022/11/21 02:57:25;;;;;;;15.77;7.97;;;;;;;-148.88;100.00;76575.56;5016145;28;20523;-84
2022/11/21 02:59:50;;;;;;;17.05;7.50;;;;;;;-148.88;100.00;76581.66;5026772;28;20026;-84
2022/11/21 03:02:15;;;;;;;18.02;8.30;;;;;;;-148.88;100.00;76567.44;5026005;28;20526;-84
2022/11/21 03:04:41;;;;;;;16.23;8.05;;;;;;;-148.88;100.00;76561.34;5026435;28;20057;-82
2022/11/21 03:07:06;;;;;;;19.73;8.70;;;;;;;-148.88;100.00;76565.41;5024429;28;20022;-84
2022/11/21 03:09:34;;;;;;;18.92;7.78;;;;;;;-148.88;100.00;76557.28;5026819;28;20033;-84
2022/11/21 03:12:04;;;;;;;17.65;7.97;;;;;;;-148.88;100.00;76565.41;5025964;28;20034;-83
2022/11/21 03:14:29;;;;;;;17.40;7.65;;;;;;;-148.88;100.00;76561.34;5024248;28;20021;-84
2022/11/21 03:16:55;;;;;;;15.48;8.05;;;;;;;-148.88;100.00;76555.25;5021405;28;20455;-84
2022/11/21 03:19:20;;;;;;;19.75;8.38;;;;;;;-148.88;100.00;76553.22;5013283;28;20121;-83
2022/11/21 03:21:45;;;;;;;18.35;8.35;;;;;;;-148.88;100.00;76547.13;5013477;28;20033;-83
2022/11/21 03:24:10;;;;;;;18.02;8.38;;;;;;;-148.88;100.00;76553.22;5014999;28;20069;-83
2022/11/21 03:26:36;;;;;;;19.13;8.98;;;;;;;-148.88;100.00;76561.34;5016592;28;20091;-83
2022/11/21 03:29:01;;;;;;;20.70;8.35;;;;;;;-148.88;100.00;76553.22;5014097;28;20398;-83
2022/11/21 03:31:26;;;;;;;18.27;8.63;;;;;;;-148.88;100.00;76557.28;5016496;28;20025;-85
2022/11/21 03:33:52;;;;;;;17.65;9.00;;;;;;;-148.88;100.00;76549.16;5023794;28;20025;-84
2022/11/21 03:36:17;;;;;;;15.52;7.57;;;;;;;-148.88;100.00;76547.13;5024051;28;20053;-83
2022/11/21 03:38:42;;;;;;;17.48;8.63;;;;;;;-148.88;100.00;76557.28;5025725;28;20029;-83
2022/11/21 03:41:28;;;;;;;19.25;8.23;;;;;;;-148.88;100.00;76561.34;5023697;28;20029;-84
2022/11/21 03:43:53;;;;;;;16.60;8.23;;;;;;;-148.88;100.00;76569.47;5026197;28;20113;-84
2022/11/21 03:46:18;;;;;;;16.25;7.75;;;;;;;-148.88;100.00;76571.50;5023151;28;20045;-84
2022/11/21 03:48:43;;;;;;;19.05;7.97;;;;;;;-148.88;100.00;76575.56;5023043;28;20029;-84
2022/11/21 03:51:09;;;;;;;17.25;7.85;;;;;;;-148.88;100.00;76577.59;5017497;28;20104;-84
2022/11/21 03:53:34;;;;;;;20.23;7.85;;;;;;;-148.88;100.00;76575.56;5013924;28;20026;-84
2022/11/21 03:55:59;;;;;;;16.63;8.00;;;;;;;-148.88;100.00;76569.47;5012859;28;20026;-83
2022/11/21 03:58:25;;;;;;;15.25;7.30;;;;;;;-148.88;100.00;76573.53;5014007;28;20026;-84
2022/11/21 04:00:50;;;;;;;19.10;8.00;;;;;;;-148.88;100.00;76575.56;5013170;28;20026;-81
2022/11/21 04:03:16;;;;;;;18.33;8.95;;;;;;;-148.88;100.00;76569.47;5014629;28;20030;-84
2022/11/21 04:05:43;;;;;;;18.02;8.43;;;;;;;-148.88;100.00;76581.66;5014113;28;20087;-83
2022/11/21 04:08:08;;;;;;;18.50;8.07;;;;;;;-148.88;100.00;76577.59;5021758;28;20030;-85
2022/11/21 04:10:33;;;;;;;18.58;8.25;;;;;;;-148.88;100.00;76569.47;5021940;28;20102;-84
2022/11/21 04:12:59;;;;;;;16.65;8.65;;;;;;;-148.88;100.00;76577.59;5026230;28;20030;-83
2022/11/21 04:15:24;;;;;;;18.88;8.82;;;;;;;-148.88;100.00;76577.59;5028228;28;20029;-83
2022/11/21 04:17:49;;;;;;;18.95;9.07;;;;;;;-148.88;100.00;76581.66;5026642;28;20051;-84
2022/11/21 04:20:16;;;;;;;20.20;8.13;;;;;;;-148.88;100.00;76585.72;5025841;28;20049;-84
2022/11/21 04:22:42;;;;;;;21.52;8.88;;;;;;;-148.88;100.00;76593.84;5023834;28;20025;-82
2022/11/21 04:25:07;;;;;;;18.92;8.43;;;;;;;-148.88;100.00;76589.78;5022811;28;20477;-83
2022/11/21 04:27:33;;;;;;;18.83;9.13;;;;;;;-148.88;100.00;76601.97;5013414;28;20096;-82
2022/11/21 04:29:58;;;;;;;19.65;8.73;;;;;;;-148.88;100.00;76610.13;5013637;28;20026;-83
2022/11/21 04:32:23;;;;;;;19.10;8.95;;;;;;;-148.88;100.00;76604.00;5012342;28;20412;-82
2022/11/21 04:34:49;;;;;;;18.20;8.80;;;;;;;-148.88;100.00;76601.97;5015773;28;20018;-84
2022/11/21 04:37:14;;;;;;;20.70;9.10;;;;;;;-148.88;100.00;76595.88;5017488;28;20025;-85
2022/11/21 04:39:39;;;;;;;20.17;8.60;;;;;;;-148.88;100.00;76601.97;5017138;28;20361;-86
2022/11/21 04:42:04;;;;;;;19.67;9.60;;;;;;;-148.88;100.00;76599.94;5018894;28;20128;-86
2022/11/21 04:44:30;;;;;;;19.20;8.68;;;;;;;-148.88;100.00;76606.06;5019410;28;20026;-85
2022/11/21 04:46:55;;;;;;;18.77;8.65;;;;;;;-148.88;100.00;76601.97;5017917;28;20022;-85
2022/11/21 04:49:20;;;;;;;20.30;9.40;;;;;;;-148.88;100.00;76610.13;5017758;28;20113;-86
2022/11/21 04:51:46;;;;;;;18.83;8.90;;;;;;;-148.88;100.00;76610.13;5018362;28;20133;-84
2022/11/21 04:54:11;;;;;;;17.00;8.73;;;;;;;-148.88;100.00;76610.13;5019956;28;20439;-83
2022/11/21 04:56:37;;;;;;;18.30;8.65;;;;;;;-148.88;100.00;76606.06;5021998;28;20064;-84
2022/11/21 04:59:02;;;;;;;16.38;7.43;;;;;;;-148.88;100.00;76604.00;5020212;28;20025;-84
2022/11/21 05:01:27;;;;;;;17.50;8.30;;;;;;;-148.88;100.00;76608.09;5017361;28;20048;-82
2022/11/21 05:03:53;;;;;;;18.58;8.32;;;;;;;-148.88;100.00;76614.19;5015580;28;20022;-82
2022/11/21 05:06:18;;;;;;;18.45;8.38;;;;;;;-148.88;100.00;76604.00;5017045;28;20030;-83
2022/11/21 05:08:43;;;;;;;17.58;8.75;;;;;;;-148.88;100.00;76608.09;5015624;28;20056;-82
2022/11/21 05:13:53;;;;;;;15.82;8.40;;;;;;;-148.88;100.00;76630.44;5017259;28;20080;-83
2022/11/21 05:16:18;;;;;;;17.95;8.50;;;;;;;-148.88;100.00;76622.31;5016292;28;20477;-84
2022/11/21 05:18:44;;;;;;;18.50;8.70;;;;;;;-148.88;100.00;76622.31;5018134;28;20097;-83
2022/11/21 05:21:09;;;;;;;20.17;8.77;;;;;;;-148.88;100.00;76620.28;5018083;28;20029;-85
2022/11/21 05:23:34;;;;;;;19.60;8.88;;;;;;;-148.88;100.00;76626.38;5018249;28;20116;-86
2022/11/21 05:26:00;;;;;;;19.63;8.75;;;;;;;-148.88;100.00;76634.50;5016625;28;20481;-84
2022/11/21 05:28:31;;;;;;;18.73;8.90;;;;;;;-148.88;100.00;76634.50;5017749;28;20034;-84
2022/11/21 05:30:56;;;;;;;19.30;8.77;;;;;;;-148.88;100.00;76648.72;5021487;28;20026;-84
2022/11/21 05:33:22;;;;;;;20.52;10.23;;;;;;;-148.88;100.00;76648.72;5017706;28;20022;-84
2022/11/21 05:35:47;;;;;;;26.10;12.18;;;;;;;-148.88;100.00;76652.78;5016899;28;20030;-85
2022/11/21 05:38:12;;;;;;;26.00;10.60;;;;;;;-148.88;100.00;76667.00;5015026;28;20030;-85
2022/11/21 05:40:38;;;;;;;24.48;10.88;;;;;;;-148.88;100.00;76667.00;5015335;28;20053;-84
2022/11/21 05:45:49;;;;;;;25.05;9.98;;;;;;;-148.88;100.00;76679.19;5015817;28;20403;-85
2022/11/21 05:48:14;;;;;;;25.10;12.05;;;;;;;-148.88;100.00;76675.13;5015128;28;20109;-86
2022/11/21 05:50:39;;;;;;;23.77;10.75;;;;;;;-148.88;100.00;76681.22;5015300;28;20053;-87
2022/11/21 05:53:05;;;;;;;25.30;10.50;;;;;;;-148.88;100.00;76689.34;5015410;28;20097;-85
2022/11/21 05:55:34;;;;;;;22.40;10.50;;;;;;;-148.88;100.00;76687.31;5016105;28;20049;-85
2022/11/21 05:57:59;;;;;;;31.08;11.18;;;;;;;-148.88;100.00;76689.34;5014400;28;20125;-86
2022/11/21 06:00:32;;;;;;;23.58;11.05;;;;;;;-148.88;100.00;76695.44;5023350;28;20090;-85
2022/11/21 06:05:44;;;;;;;29.65;13.20;;;;;;;-148.88;100.00;76703.56;5019744;28;20056;-84
2022/11/21 06:08:10;;;;;;;25.88;13.27;;;;;;;-148.88;100.00;76707.63;5019499;28;20030;-84
2022/11/21 06:10:35;;;;;;;26.23;12.88;;;;;;;-148.88;100.00;76705.59;5016130;28;20037;-83
2022/11/21 06:13:01;;;;;;;25.73;11.80;;;;;;;-148.88;100.00;76701.53;5027827;28;20419;-86
2022/11/21 06:15:27;;;;;;;24.25;11.73;;;;;;;-148.88;100.00;76707.63;5024518;28;20155;-85
2022/11/21 06:17:54;;;;;;;22.70;9.98;;;;;;;-148.88;100.00;76715.75;5015496;28;20432;-86
2022/11/21 06:20:20;;;;;;;25.48;11.63;;;;;;;-148.88;100.00;76719.81;5014711;28;20018;-86
2022/11/21 06:23:12;;;;;;;24.10;10.98;;;;;;;-148.88;100.00;76732.00;5015374;28;20103;-85
2022/11/21 06:25:37;;;;;;;24.52;11.23;;;;;;;-148.88;100.00;76715.75;5012224;28;20121;-86
2022/11/21 06:28:03;;;;;;;26.60;10.85;;;;;;;-148.88;100.00;76711.69;5014497;28;20508;-84
2022/11/21 06:30:36;;;;;;;21.70;9.80;;;;;;;-148.88;100.00;76711.69;5013471;28;20030;-85
2022/11/21 06:33:04;;;;;;;25.20;11.40;;;;;;;-148.88;100.00;76715.75;5015107;28;20032;-85
2022/11/21 06:35:37;;;;;;;20.42;9.98;;;;;;;-148.88;100.00;76729.97;5016893;28;20392;-86
2022/11/21 06:38:05;;;;;;;20.93;10.20;;;;;;;-148.88;100.00;76740.13;5013688;28;20060;-85
2022/11/21 06:40:31;;;;;;;20.52;10.45;;;;;;;-148.88;100.00;76744.19;5013525;28;20109;-84
2022/11/21 06:43:05;;;;;;;29.30;12.88;;;;;;;-148.88;100.00;76752.31;5014688;28;20109;-84
2022/11/21 06:45:32;;;;;;;19.38;10.27;;;;;;;-148.88;100.00;76740.13;5013439;28;20028;-84
2022/11/21 06:48:00;;;;;;;21.15;9.88;;;;;;;-148.88;100.00;76744.19;5013295;28;20079;-84
2022/11/21 06:50:46;;;;;;;22.50;10.07;;;;;;;-148.88;100.00;76752.31;5014529;28;20104;-85
2022/11/21 06:53:11;;;;;;;20.20;10.10;;;;;;;-148.88;100.00;76750.28;5015081;28;20036;-84
2022/11/21 06:55:36;;;;;;;23.35;13.73;;;;;;;-148.88;100.00;76752.31;5013403;28;20022;-86
2022/11/21 06:58:02;;;;;;;21.73;11.50;;;;;;;-148.88;100.00;76748.25;5013290;28;20033;-87
2022/11/21 07:00:27;;;;;;;26.02;11.32;;;;;;;-148.88;100.00;76754.38;5014779;28;20057;-87
2022/11/21 07:02:54;;;;;;;22.48;11.25;;;;;;;-148.88;100.00;76754.38;5014646;28;20026;-86
2022/11/21 07:05:19;;;;;;;20.75;10.02;;;;;;;-148.88;100.00;76762.50;5014355;28;20096;-86
2022/11/21 07:07:45;;;;;;;20.70;9.57;;;;;;;-148.88;100.00;76772.66;5013150;28;20060;-85
2022/11/21 07:10:11;;;;;;;26.42;11.13;;;;;;;-148.88;100.00;76770.63;5013838;28;20026;-85
2022/11/21 07:15:20;;;;;;;22.42;10.32;;;;;;;-148.88;100.00;76770.63;5015070;28;20036;-87
2022/11/21 07:17:45;;;;;;;20.83;10.48;;;;;;;-148.88;100.00;76768.59;5014232;28;20034;-84
2022/11/21 07:20:11;;;;;;;24.67;10.23;;;;;;;-148.88;100.00;76774.69;5014468;28;20424;-86
2022/11/21 07:22:36;;;;;;;26.38;11.15;;;;;;;-148.88;100.00;76768.59;5014098;28;20109;-85
2022/11/21 07:25:02;;;;;;;28.75;12.07;;;;;;;-148.88;100.00;76766.56;5012773;28;20029;-86
2022/11/21 07:27:27;;;;;;;29.08;13.25;;;;;;;-148.88;100.00;76768.59;5014200;28;20036;-86
2022/11/21 07:29:52;;;;;;;24.65;12.45;;;;;;;-148.88;100.00;76768.59;5012682;28;20060;-85
2022/11/21 07:32:18;;;;;;;26.30;11.75;;;;;;;-148.88;100.00;76768.59;5014319;28;20030;-85
2022/11/21 07:34:57;;;;;;;27.90;12.45;;;;;;;-148.88;100.00;76768.59;5013959;28;20403;-85
2022/11/21 07:37:23;;;;;;;25.55;12.23;;;;;;;-148.88;100.00;76768.59;5012660;28;20036;-85
2022/11/21 07:40:01;;;;;;;24.25;12.00;;;;;;;-148.88;100.00;76768.59;5013972;28;20104;-86
2022/11/21 07:42:37;;;;;;;25.33;11.88;;;;;;;-148.88;100.00;76768.59;5013647;28;20038;-85
2022/11/21 07:45:03;;;;;;;23.63;10.65;;;;;;;-148.88;100.00;76766.56;5012860;28;20112;-83
2022/11/21 07:47:28;;;;;;;25.20;11.35;;;;;;;-148.88;100.00;76768.59;5012697;28;20056;-82
2022/11/21 07:49:53;;;;;;;26.95;11.90;;;;;;;-148.88;100.00;76764.53;5014819;28;20032;-85
2022/11/21 07:52:19;;;;;;;23.70;11.05;;;;;;;-148.88;100.00;76752.31;5015886;28;20037;-85
2022/11/21 07:55:10;;;;;;;24.27;10.35;;;;;;;-148.88;100.00;76756.41;5014503;28;20021;-83
2022/11/21 07:57:44;;;;;;;28.33;11.48;;;;;;;-148.88;100.00;76752.31;5011990;28;20506;-85
2022/11/21 08:00:11;;;;;;;30.90;11.35;;;;;;;-148.88;100.00;76748.25;5012449;28;20124;-86
2022/11/21 08:02:37;;;;;;;27.40;11.65;;;;;;;-148.88;100.00;76744.19;5014117;28;20511;-85
2022/11/21 08:05:02;;;;;;;29.88;11.95;;;;;;;-148.88;100.00;76748.25;5013304;28;20082;-85
2022/11/21 08:07:33;;;;;;;29.63;11.82;;;;;;;-148.88;100.00;76736.06;5013520;28;20034;-87
2022/11/21 08:09:58;;;;;;;32.53;12.55;;;;;;;-148.88;100.00;76727.94;5012139;28;20034;-88
2022/11/21 08:12:24;;;;;;;29.20;13.40;;;;;;;-148.88;100.00;76719.81;5012403;28;20469;-85
2022/11/21 08:14:49;;;;;;;30.92;12.73;;;;;;;-148.88;100.00;76703.56;5013694;28;20049;-86
2022/11/21 08:17:17;;;;;;;28.50;11.90;;;;;;;-148.88;100.00;76701.53;5016144;28;20017;-88
2022/11/21 08:19:42;;;;;;;30.08;13.68;;;;;;;-148.88;100.00;76689.34;5014335;28;20506;-88
2022/11/21 08:22:07;;;;;;;26.67;12.48;;;;;;;-148.88;100.00;76683.25;5012856;28;20496;-86
2022/11/21 08:24:33;;;;;;;26.95;12.40;;;;;;;-148.88;100.00;76671.06;5015006;28;20136;-86
2022/11/21 08:26:59;;;;;;;28.27;13.52;;;;;;;-148.88;100.00;76658.88;5012570;28;20026;-86
2022/11/21 08:29:25;;;;;;;23.73;11.95;;;;;;;-148.88;100.00;76654.81;5012317;28;20112;-87
2022/11/21 08:31:50;;;;;;;28.02;12.38;;;;;;;-148.88;100.00;76648.72;5011483;28;20160;-85
2022/11/21 08:34:16;;;;;;;32.33;13.35;;;;;;;-148.88;100.00;76630.44;5012107;28;20030;-85
2022/11/21 08:36:41;;;;;;;25.42;12.10;;;;;;;-148.88;100.00;76630.44;5011314;28;20060;-85
2022/11/21 08:39:07;;;;;;;28.17;12.48;;;;;;;-148.88;100.00;76620.28;5011994;28;20030;-84
2022/11/21 08:44:24;;;;;;;25.85;12.23;;;;;;;-148.88;100.00;76599.94;5013078;28;20062;-84
2022/11/21 08:46:49;;;;;;;25.73;11.70;;;;;;;-148.88;100.00;76587.75;5012663;28;20030;-83
2022/11/21 08:49:14;;;;;;;27.77;12.50;;;;;;;-148.88;100.00;76573.53;5013594;28;20030;-85
2022/11/21 08:51:40;;;;;;;28.23;13.13;;;;;;;-148.88;100.00;76561.34;5012281;28;20124;-86
2022/11/21 08:54:05;;;;;;;27.05;12.77;;;;;;;-148.88;100.00;76557.28;5011784;28;20117;-89
2022/11/21 08:56:31;;;;;;;23.73;12.45;;;;;;;-148.88;100.00;76534.94;5012796;28;20022;-88
2022/11/21 08:58:56;;;;;;;30.50;13.38;;;;;;;-148.88;100.00;76524.78;5011305;28;20496;-86
2022/11/21 09:01:22;;;;;;;29.77;12.60;;;;;;;-148.88;100.00;76516.66;5012525;28;20072;-85
2022/11/21 09:03:47;;;;;;;24.80;11.93;;;;;;;-148.88;100.00;76526.81;5011417;28;20025;-85
2022/11/21 09:06:13;;;;;;;26.02;12.27;;;;;;;-148.88;100.00;76524.78;5057323;22;20054;-86
2022/11/21 09:08:38;;;;;;;27.55;13.15;;;;;;;-148.88;100.00;76528.84;5014446;28;20030;-85
2022/11/21 09:11:09;;;;;;;29.00;13.40;;;;;;;-148.88;100.00;76520.72;5012128;28;20041;-85
2022/11/21 09:19:39;;;;;;;28.73;13.07;;;;;;;-148.88;100.00;76524.78;5015525;28;20400;-86
2022/11/21 09:22:32;;;;;;;25.35;12.23;;;;;;;-148.88;100.00;76510.56;5016380;28;20061;-86
2022/11/21 09:24:57;;;;;;;27.92;12.18;;;;;;;-148.88;100.00;76504.47;4996935;28;20117;-85
2022/11/21 09:28:07;;;;;;;29.90;12.95;;;;;;;-148.88;100.00;76508.53;5017725;28;20445;-86
2022/11/21 09:30:33;;;;;;;29.35;13.57;;;;;;;-148.88;100.00;76494.31;5016355;28;20022;-83
2022/11/21 09:33:24;;;;;;;26.70;12.68;;;;;;;-148.88;100.00;76480.09;5018190;28;20022;-85
2022/11/21 09:35:49;;;;;;;32.13;13.65;;;;;;;-148.88;100.00;76471.97;5019609;23;20050;-78
2022/11/21 09:38:15;;;;;;;31.05;14.18;;;;;;;-148.88;100.00;76455.72;5018726;28;20030;-77
2022/11/21 09:40:44;;;;;;;30.75;13.60;;;;;;;-148.88;100.00;76445.56;5020565;28;20022;-78
2022/11/21 09:43:24;;;;;;;31.33;13.27;;;;;;;-148.88;100.00;76431.34;5020244;28;20100;-77
2022/11/21 09:45:56;;;;;;;30.67;13.10;;;;;;;-148.88;100.00;76431.34;5025383;28;20033;-78
2022/11/21 09:48:47;;;;;;;33.33;14.57;;;;;;;-148.88;100.00;76427.28;5028537;28;20444;-78
2022/11/21 09:51:15;;;;;;;38.15;14.00;;;;;;;-148.88;100.00;76415.06;5022922;28;20026;-79
2022/11/21 09:54:03;;;;;;;36.20;13.55;;;;;;;-148.88;100.00;76404.91;5018682;28;20113;-79
2022/11/21 09:56:34;;;;;;;34.00;14.10;;;;;;;-148.88;100.00;76398.81;5016768;28;20025;-78
2022/11/21 09:59:24;;;;;;;37.78;14.27;;;;;;;-148.88;100.00;76398.81;5018171;28;20061;-78
2022/11/21 10:01:50;;;;;;;37.28;12.88;;;;;;;-148.88;100.00;76386.63;5017708;28;20021;-79
2022/11/21 10:04:15;;;;;;;38.63;13.63;;;;;;;-148.88;100.00;76370.38;5017817;28;20485;-78
2022/11/21 10:07:00;;;;;;;33.80;13.38;;;;;;;-148.88;100.00;76358.19;5018470;28;20038;-78
2022/11/21 10:09:49;;;;;;;30.83;13.10;;;;;;;-148.88;100.00;76356.16;5018109;28;20542;-78
2022/11/21 10:12:35;;;;;;;33.80;13.15;;;;;;;-148.88;100.00;76329.75;5017218;28;20084;-78
2022/11/21 10:15:25;;;;;;;28.25;12.75;;;;;;;-148.88;100.00;76313.50;5018847;28;20397;-77
2022/11/21 10:18:27;;;;;;;25.65;11.75;;;;;;;-148.88;100.00;76301.31;5020099;28;20022;-77
2022/11/21 10:20:56;;;;;;;27.90;12.38;;;;;;;-148.88;100.00;76281.00;5005544;28;20492;-78
2022/11/21 10:23:40;;;;;;;25.42;11.38;;;;;;;-148.88;100.00;76260.69;5021779;28;20096;-78
2022/11/21 10:26:27;;;;;;;24.83;10.82;;;;;;;-148.88;99.57;76252.56;5019937;28;20381;-78
2022/11/21 10:29:03;;;;;;;24.73;11.13;;;;;;;-148.88;100.00;76232.25;5017523;28;20041;-78
2022/11/21 10:31:35;;;;;;;26.67;11.73;;;;;;;-148.88;99.99;76191.63;5016869;28;20025;-78
2022/11/21 10:34:02;;;;;;;26.65;11.88;;;;;;;-148.88;99.49;76153.03;5015990;28;20018;-78
2022/11/21 10:36:36;;;;;;;26.23;12.57;;;;;;;-148.88;98.87;76128.66;5016951;28;20026;-78
2022/11/21 10:39:13;;;;;;;27.88;11.73;;;;;;;-148.88;96.66;76134.72;5017692;28;20424;-78
2022/11/21 10:42:12;;;;;;;24.77;12.23;;;;;;;-148.88;95.92;76136.78;5017535;28;20026;-78
2022/11/21 10:47:36;;;;;;;;;;;;;;;-148.88;95.30;76128.66;5018256;28;20038;-78
2022/11/21 10:50:20;;;;;;;26.65;11.75;;;;;;;-148.88;94.51;76126.59;5017359;28;19916;-77
2022/11/21 10:54:31;;;;;;;24.70;12.00;;;;;;;-148.88;95.17;76118.47;5019925;28;20052;-78
2022/11/21 10:55:59;;;;;;;27.52;12.05;;;;;;;-148.88;94.87;76098.16;5019527;28;20030;-78
2022/11/21 10:58:35;;;;;;;26.98;12.57;;;;;;;-148.88;94.18;76083.94;5018437;28;20026;-78
2022/11/21 11:01:00;;;;;;;25.88;11.32;;;;;;;-148.88;94.53;76096.13;5016664;28;20083;-78
2022/11/21 11:03:28;;;;;;;24.92;12.45;;;;;;;-148.88;93.26;76106.28;5018196;28;20109;-78
2022/11/21 11:05:56;;;;;;;23.17;10.80;;;;;;;-148.88;93.69;76098.16;5017339;28;20036;-78
2022/11/21 11:08:22;;;;;;;26.88;11.00;;;;;;;-148.88;93.80;76128.66;5017025;28;20036;-78
2022/11/21 11:11:12;;;;;;;23.33;11.25;;;;;;;-148.88;95.62;76106.28;5016833;28;20092;-78
2022/11/21 11:14:14;;;;;;;27.98;12.00;;;;;;;-148.88;94.40;76094.09;5016948;28;20041;-78
2022/11/21 11:16:45;;;;;;;21.60;10.98;;;;;;;-148.88;93.87;76083.94;5005840;28;20034;-77
2022/11/21 11:19:13;;;;;;;24.70;10.65;;;;;;;-148.88;93.76;76061.59;5016440;28;20111;-78
2022/11/21 11:21:44;;;;;;;25.70;11.93;;;;;;;-148.88;93.31;76037.22;5017310;28;20053;-77
2022/11/21 11:24:09;;;;;;;23.50;10.40;;;;;;;-148.88;92.53;76012.84;5015292;28;20029;-77
2022/11/21 11:26:56;;;;;;;24.63;9.90;;;;;;;-148.88;92.43;76073.78;5016718;28;20034;-77
2022/11/21 11:29:30;;;;;;;21.40;10.15;;;;;;;-148.88;94.89;76073.78;5017127;28;20022;-77
2022/11/21 11:31:59;;;;;;;23.55;10.38;;;;;;;-148.88;95.36;76116.44;5017171;28;20377;-78